KOWB

Owensboro-Daviess County Regional Airport

Owensboro, Kentucky, USA
METAR KOWB 230556Z AUTO 00000KT 10SM CLR 06/03 A3021 RMK AO2 SLP242 T00610028 10111 20061 401830006 50005
Observed Flight Rules
Oct-23 @ 05:56 UTC (19 minutes ago) Visual Flight Rules
Visibility Clouds
10 miles
  • Clear skies
Temperatures Readings
Current 6°C / 43°F
Dewpoint 3°C / 37°F
Humidity 81%
Altimeter 30.21" Hg
Pressure 1024.2 hPa
Elevation 124
METAR KOWB 230556Z AUTO 00000KT 10SM CLR 06/03 A3021 RMK AO2 SLP242 T00610028 10111 20061 401830006 50005
Observed Flight Rules
Oct-23 @ 05:56 UTC
(19 minutes ago)
VFR
Clouds
  • Clear skies
Temperature Dewpoint
6°C / 43°F 3°C / 37°F
Humidity Altimeter Pressure
81% 30.21" Hg 1024.2 hPa